Hauptseite
METAR-TAF:

METAR-TAF

Flughäfen :

Flughafen Scharm asch-Schaich

Scharm El-Scheich, Ägypten

Breite: 27-58N, Länge: 034-23E, Höhe: 50 m

Beobachtung

Neuester Wetterbericht von vor 47 Minuten, um 22:00 UTC
Wind 10 kt aus Nord/Nordwest
Temperatur 28°C
Luftfeuchtigkeit 40%
Luftdruck 1010 hPa
Sichtweite 10 km oder mehr
keine Wolken unter 1500 m und keine Kumulonimbus oder Gewitterwolken

METAR: HESH 302200Z 33010KT CAVOK 28/13 Q1010 NOSIG

Zeit: 00:47 (22:47 UTC)

Prognose

Neuester Wetterbericht von vor 5 Stunden und 47 Minuten, um 17:00 UTC
Gültige Prognose vom 30 um 18 UTC bis 31 um 24 UTC
Wind 12 kt aus Nord/Nordwest
Sichtweite 10 km oder mehr
keine Wolken unter 1500 m und keine Kumulonimbus oder Gewitterwolken

TAF: HESH 301700Z 3018/3124 34012KT CAVOK

Wetterbeobachtungen und Prognosen von mehr als 4000 Flughäfen (METAR und TAF Bericht).

Die verfügbaren Stationen werden durch gelbe und rote Markierungen auf der Karte dargestellt.

Führen Sie die Maus auf sie, um den Namen der Station zu sehen.

Darauf klicken, um die Beobachtung von Wetterbeobachtungen und Prognosen zu sehen.

Um die Karte zu ändern : klicken Sie auf den grünen Tasten mit einem schwarzen Kreuz Zum Vergrößern, auf den grünen Button mit einem Gedankenstrich zu verkleinern, oder auf die grünen Pfeile für benachbarte Karten.


METAR-TAF: